createdAt,value
2022-07-29T00:00:16.197Z,101191.69
2022-07-29T00:01:47.941Z,101193.50
2022-07-29T00:03:19.787Z,101192.03
2022-07-29T00:04:51.620Z,101178.09
2022-07-29T00:06:23.445Z,101181.63
2022-07-29T00:07:55.227Z,101182.41
2022-07-29T00:09:26.967Z,101172.53
2022-07-29T00:10:58.694Z,101175.22
2022-07-29T00:12:30.461Z,101176.94
2022-07-29T00:14:02.312Z,101180.34
2022-07-29T00:15:35.435Z,101176.59
2022-07-29T00:17:07.158Z,101171.56
2022-07-29T00:18:40.333Z,101164.50
2022-07-29T00:20:12.270Z,101165.56
2022-07-29T00:21:44.224Z,101160.19
2022-07-29T00:23:15.940Z,101165.78
2022-07-29T00:24:48.690Z,101156.78
2022-07-29T00:26:20.379Z,101157.63
2022-07-29T00:27:52.067Z,101153.38
2022-07-29T00:29:39.173Z,101154.22
2022-07-29T00:31:12.349Z,101144.47
2022-07-29T00:32:44.142Z,101150.56
2022-07-29T00:34:42.192Z,101143.50
2022-07-29T00:36:14.038Z,101147.91
2022-07-29T00:37:45.822Z,101144.38
2022-07-29T00:39:17.511Z,101146.19
2022-07-29T00:40:49.373Z,101135.59
2022-07-29T00:42:21.106Z,101133.78
2022-07-29T00:43:52.805Z,101134.63
2022-07-29T00:45:24.574Z,101125.03
2022-07-29T00:46:57.761Z,101130.22
2022-07-29T00:48:29.546Z,101122.94
2022-07-29T00:50:01.521Z,101121.84
2022-07-29T00:51:33.224Z,101119.19
2022-07-29T00:53:08.155Z,101120.91
2022-07-29T00:54:44.434Z,101119.09
2022-07-29T00:56:16.708Z,101112.78
2022-07-29T00:57:48.842Z,101108.38
2022-07-29T00:59:20.791Z,101107.63
2022-07-29T01:00:53.332Z,101102.88
2022-07-29T01:02:26.613Z,101106.75
2022-07-29T01:03:58.611Z,101096.28
2022-07-29T01:05:48.246Z,101095.31
2022-07-29T01:07:22.917Z,101096.03
2022-07-29T01:08:55.022Z,101099.69
2022-07-29T01:10:28.348Z,101097.97
2022-07-29T01:12:01.079Z,101099.19
2022-07-29T01:13:34.275Z,101093.81
2022-07-29T01:15:08.825Z,101092.13
2022-07-29T01:16:46.850Z,101105.03
2022-07-29T01:18:25.105Z,101098.31
2022-07-29T01:20:02.678Z,101097.69
2022-07-29T01:21:51.161Z,101111.91
2022-07-29T01:23:41.922Z,101103.19
2022-07-29T01:25:33.470Z,101108.03
2022-07-29T01:27:23.298Z,101109.41
2022-07-29T01:29:04.058Z,101117.81
2022-07-29T01:30:41.170Z,101102.38
2022-07-29T01:32:28.193Z,101098.94
2022-07-29T01:34:05.211Z,101102.81
2022-07-29T01:35:40.965Z,101104.06
2022-07-29T01:37:19.211Z,101106.00
2022-07-29T01:38:58.072Z,101102.22
2022-07-29T01:40:35.793Z,101098.59
2022-07-29T01:42:13.711Z,101098.59
2022-07-29T01:43:52.718Z,101090.44
2022-07-29T01:45:33.010Z,101106.50
2022-07-29T01:47:11.746Z,101102.81
2022-07-29T01:48:48.225Z,101102.81
2022-07-29T01:50:24.316Z,101102.34
2022-07-29T01:51:59.790Z,101104.28
2022-07-29T01:53:38.269Z,101096.47
2022-07-29T01:55:14.969Z,101107.41
2022-07-29T01:56:50.730Z,101094.41
2022-07-29T01:58:24.002Z,101100.63
2022-07-29T01:59:58.478Z,101089.66
2022-07-29T02:01:33.746Z,101094.03
2022-07-29T02:03:10.591Z,101097.69
2022-07-29T02:04:45.612Z,101099.38
2022-07-29T02:06:22.318Z,101103.97
2022-07-29T02:07:56.737Z,101110.91
2022-07-29T02:09:29.612Z,101110.44
2022-07-29T02:11:02.424Z,101117.34
2022-07-29T02:12:36.577Z,101114.34
2022-07-29T02:14:10.898Z,101128.59
2022-07-29T02:15:44.588Z,101131.81
2022-07-29T02:17:23.379Z,101136.53
2022-07-29T02:18:56.642Z,101133.97
2022-07-29T02:20:29.761Z,101133.97
2022-07-29T02:22:02.566Z,101142.31
2022-07-29T02:23:50.918Z,101132.47
2022-07-29T02:25:25.326Z,101128.19
2022-07-29T02:27:10.598Z,101129.59
2022-07-29T02:28:42.473Z,101119.34
2022-07-29T02:30:14.475Z,101126.06
2022-07-29T02:31:48.163Z,101135.38
2022-07-29T02:33:24.289Z,101137.06
2022-07-29T02:34:57.524Z,101138.03
2022-07-29T02:36:30.821Z,101136.97
2022-07-29T02:38:22.647Z,101134.31
2022-07-29T02:39:56.171Z,101124.38
2022-07-29T02:41:31.296Z,101119.69
2022-07-29T02:43:05.261Z,101114.44
2022-07-29T02:44:37.736Z,101108.78
2022-07-29T02:46:29.043Z,101114.13
2022-07-29T02:48:07.207Z,101116.44
2022-07-29T02:49:46.799Z,101121.06
2022-07-29T02:51:43.607Z,101128.84
2022-07-29T02:53:19.765Z,101135.25
2022-07-29T02:54:56.392Z,101138.28
2022-07-29T02:56:35.760Z,101140.81
2022-07-29T02:58:15.149Z,101126.41
2022-07-29T02:59:50.799Z,101126.63
2022-07-29T03:01:25.279Z,101131.13
2022-07-29T03:03:00.358Z,101131.41
2022-07-29T03:04:35.283Z,101142.53
2022-07-29T03:06:09.543Z,101155.03
2022-07-29T03:08:04.904Z,101159.63
2022-07-29T03:09:37.560Z,101159.50
2022-07-29T03:11:10.537Z,101162.69
2022-07-29T03:12:43.647Z,101175.19
2022-07-29T03:14:18.161Z,101182.81
2022-07-29T03:15:50.790Z,101186.88
2022-07-29T03:17:23.468Z,101179.75
2022-07-29T03:18:56.130Z,101192.69
2022-07-29T03:20:28.066Z,101190.03
2022-07-29T03:22:01.678Z,101201.91
2022-07-29T03:23:36.976Z,101205.41
2022-07-29T03:25:09.731Z,101213.53
2022-07-29T03:26:41.439Z,101224.75
2022-07-29T03:28:13.182Z,101217.38
2022-07-29T03:29:49.727Z,101213.72
2022-07-29T03:31:22.036Z,101205.22
2022-07-29T03:32:54.088Z,101197.44
2022-07-29T03:34:28.333Z,101194.41
2022-07-29T03:36:00.048Z,101188.41
2022-07-29T03:37:34.386Z,101184.22
2022-07-29T03:39:07.858Z,101177.47
2022-07-29T03:40:43.994Z,101181.09
2022-07-29T03:42:17.547Z,101171.94
2022-07-29T03:43:52.476Z,101156.81
2022-07-29T03:45:26.130Z,101154.63
2022-07-29T03:47:02.904Z,101140.84
2022-07-29T03:48:37.560Z,101142.09
2022-07-29T03:50:12.903Z,101139.13
2022-07-29T03:51:44.890Z,101146.97
2022-07-29T03:53:18.491Z,101148.69
2022-07-29T03:54:50.568Z,101149.53
2022-07-29T03:56:24.305Z,101148.78
2022-07-29T03:57:58.575Z,101143.59
2022-07-29T03:59:33.626Z,101127.69
2022-07-29T04:01:05.468Z,101122.84
2022-07-29T04:02:38.866Z,101113.41
2022-07-29T04:04:11.042Z,101125.84
2022-07-29T04:05:42.761Z,101130.06
2022-07-29T04:07:15.325Z,101132.38
2022-07-29T04:08:48.681Z,101150.44
2022-07-29T04:10:30.335Z,101156.81
2022-07-29T04:12:04.643Z,101155.75
2022-07-29T04:13:36.453Z,101151.56
2022-07-29T04:15:09.526Z,101152.06
2022-07-29T04:16:41.195Z,101149.91
2022-07-29T04:18:12.933Z,101141.78
2022-07-29T04:19:44.687Z,101136.97
2022-07-29T04:21:16.404Z,101142.94
2022-07-29T04:22:48.097Z,101144.44
2022-07-29T04:24:21.472Z,101140.91
2022-07-29T04:25:53.184Z,101147.38
2022-07-29T04:27:25.072Z,101156.31
2022-07-29T04:28:56.858Z,101152.81
2022-07-29T04:30:29.085Z,101163.91
2022-07-29T04:32:00.782Z,101170.41
2022-07-29T04:33:32.521Z,101157.66
2022-07-29T04:35:04.978Z,101149.31
2022-07-29T04:36:36.696Z,101146.94
2022-07-29T04:38:15.895Z,101143.59
2022-07-29T04:39:50.318Z,101149.97
2022-07-29T04:41:22.025Z,101142.34
2022-07-29T04:42:53.811Z,101135.16
2022-07-29T04:44:28.379Z,101143.91
2022-07-29T04:46:01.323Z,101140.94
2022-07-29T04:47:33.148Z,101137.06
2022-07-29T04:49:05.201Z,101130.00
2022-07-29T04:50:39.048Z,101133.16
2022-07-29T04:52:10.818Z,101133.63
2022-07-29T04:53:42.598Z,101127.06
2022-07-29T04:55:16.018Z,101129.25
2022-07-29T04:56:47.891Z,101129.53
2022-07-29T04:58:19.638Z,101137.13
2022-07-29T04:59:51.324Z,101127.81
2022-07-29T05:01:23.153Z,101132.84
2022-07-29T05:02:55.110Z,101130.94
2022-07-29T05:04:26.883Z,101128.97
2022-07-29T05:05:58.582Z,101126.13
2022-07-29T05:07:30.492Z,101123.53
2022-07-29T05:09:02.226Z,101127.63
2022-07-29T05:10:38.955Z,101130.94
2022-07-29T05:12:10.837Z,101141.91
2022-07-29T05:13:45.040Z,101143.03
2022-07-29T05:15:18.735Z,101135.78
2022-07-29T05:16:52.022Z,101145.84
2022-07-29T05:18:26.107Z,101148.78
2022-07-29T05:19:58.187Z,101144.75
2022-07-29T05:21:29.868Z,101150.66
2022-07-29T05:23:02.638Z,101153.53
2022-07-29T05:24:34.444Z,101145.19
2022-07-29T05:26:07.487Z,101151.81
2022-07-29T05:27:39.211Z,101148.88
2022-07-29T05:29:44.638Z,101149.31
2022-07-29T05:31:04.000Z,101147.06
2022-07-29T05:32:35.741Z,101152.13
2022-07-29T05:34:07.494Z,101156.19
2022-07-29T05:35:39.205Z,101148.69
2022-07-29T05:37:11.069Z,101159.06
2022-07-29T05:38:42.840Z,101142.97
2022-07-29T05:40:14.619Z,101150.88
2022-07-29T05:41:51.877Z,101156.41
2022-07-29T05:43:24.217Z,101147.94
2022-07-29T05:44:56.066Z,101149.13
2022-07-29T05:46:27.919Z,101153.81
2022-07-29T05:47:59.734Z,101153.94
2022-07-29T05:49:31.481Z,101158.31
2022-07-29T05:51:03.478Z,101158.22
2022-07-29T05:52:35.252Z,101156.28
2022-07-29T05:54:07.132Z,101159.25
2022-07-29T05:55:38.839Z,101164.28
2022-07-29T05:57:17.845Z,101160.34
2022-07-29T05:58:49.575Z,101162.16
2022-07-29T06:00:21.302Z,101172.41
2022-07-29T06:01:53.158Z,101172.22
2022-07-29T06:03:24.951Z,101173.81
2022-07-29T06:04:56.749Z,101186.63
2022-07-29T06:06:28.607Z,101184.41
2022-07-29T06:08:00.294Z,101189.31
2022-07-29T06:09:32.035Z,101192.53
2022-07-29T06:11:04.553Z,101207.50
2022-07-29T06:12:37.682Z,101207.50
2022-07-29T06:14:09.467Z,101207.25
2022-07-29T06:15:41.296Z,101206.41
2022-07-29T06:17:13.056Z,101217.84
2022-07-29T06:18:44.831Z,101207.91
2022-07-29T06:20:16.575Z,101208.75
2022-07-29T06:21:49.014Z,101216.56
2022-07-29T06:23:21.371Z,101211.31
2022-07-29T06:24:53.084Z,101216.88
2022-07-29T06:26:30.355Z,101218.47
2022-07-29T06:28:05.282Z,101227.16
2022-07-29T06:29:37.128Z,101233.28
2022-07-29T06:31:09.304Z,101238.50
2022-07-29T06:32:43.432Z,101238.50
2022-07-29T06:34:15.593Z,101238.69
2022-07-29T06:35:53.655Z,101237.94
2022-07-29T06:37:27.075Z,101247.00
2022-07-29T06:39:01.404Z,101248.72
2022-07-29T06:40:54.071Z,101239.94
2022-07-29T06:42:25.948Z,101232.78
2022-07-29T06:43:59.044Z,101232.69
2022-07-29T06:45:30.996Z,101227.56
2022-07-29T06:47:02.982Z,101233.66
2022-07-29T06:48:35.266Z,101239.97
2022-07-29T06:50:07.901Z,101238.94
2022-07-29T06:51:39.608Z,101235.94
2022-07-29T06:53:11.349Z,101232.31
2022-07-29T06:54:49.110Z,101231.97
2022-07-29T06:56:20.880Z,101232.94
2022-07-29T06:57:52.665Z,101232.81
2022-07-29T06:59:33.456Z,101228.25
2022-07-29T07:01:07.814Z,101229.00
2022-07-29T07:02:39.767Z,101226.53
2022-07-29T07:04:12.682Z,101236.56
2022-07-29T07:05:45.678Z,101236.88
2022-07-29T07:07:17.380Z,101239.75
2022-07-29T07:08:49.731Z,101240.72
2022-07-29T07:10:21.443Z,101243.38
2022-07-29T07:11:53.177Z,101248.94
2022-07-29T07:13:25.151Z,101245.41
2022-07-29T07:14:58.179Z,101252.66
2022-07-29T07:16:29.993Z,101248.50
2022-07-29T07:18:01.754Z,101249.97
2022-07-29T07:19:33.833Z,101239.94
2022-07-29T07:21:06.623Z,101244.22
2022-07-29T07:22:39.023Z,101235.47
2022-07-29T07:24:10.888Z,101235.06
2022-07-29T07:25:43.048Z,101231.38
2022-07-29T07:27:14.953Z,101237.25
2022-07-29T07:28:46.649Z,101232.97
2022-07-29T07:30:19.789Z,101238.69
2022-07-29T07:31:51.618Z,101235.16
2022-07-29T07:33:23.643Z,101243.84
2022-07-29T07:34:55.455Z,101234.88
2022-07-29T07:36:27.176Z,101237.25
2022-07-29T07:37:58.987Z,101224.97
2022-07-29T07:39:30.935Z,101228.03
2022-07-29T07:41:02.811Z,101231.25
2022-07-29T07:42:34.562Z,101221.13
2022-07-29T07:44:06.987Z,101223.72
2022-07-29T07:45:41.102Z,101224.13
2022-07-29T07:47:12.996Z,101217.53
2022-07-29T07:48:45.267Z,101212.28
2022-07-29T07:50:19.200Z,101200.84
2022-07-29T07:51:51.276Z,101209.16
2022-07-29T07:53:23.298Z,101209.41
2022-07-29T07:54:55.112Z,101208.75
2022-07-29T07:56:30.669Z,101205.97
2022-07-29T07:58:05.005Z,101213.22
2022-07-29T07:59:36.828Z,101203.59
2022-07-29T08:01:10.894Z,101210.34
2022-07-29T08:02:43.907Z,101206.47
2022-07-29T08:04:16.013Z,101197.81
2022-07-29T08:05:48.431Z,101196.63
2022-07-29T08:07:20.213Z,101207.59
2022-07-29T08:08:52.060Z,101208.53
2022-07-29T08:10:42.473Z,101205.47
2022-07-29T08:12:14.211Z,101210.16
2022-07-29T08:13:45.986Z,101203.09
2022-07-29T08:15:17.770Z,101207.41
2022-07-29T08:16:51.785Z,101216.69
2022-07-29T08:18:23.638Z,101218.69
2022-07-29T08:19:55.450Z,101221.50
2022-07-29T08:21:27.260Z,101232.19
2022-07-29T08:22:59.009Z,101233.38
2022-07-29T08:24:53.437Z,101232.97
2022-07-29T08:26:27.313Z,101229.66
2022-07-29T08:27:59.761Z,101238.88
2022-07-29T08:29:31.554Z,101239.31
2022-07-29T08:31:04.372Z,101225.63
2022-07-29T08:32:53.349Z,101223.94
2022-07-29T08:34:28.108Z,101225.84
2022-07-29T08:36:00.022Z,101218.38
2022-07-29T08:37:31.739Z,101224.31
2022-07-29T08:39:03.884Z,101222.00
2022-07-29T08:40:35.979Z,101229.03
2022-07-29T08:42:07.740Z,101230.22
2022-07-29T08:43:41.862Z,101234.78
2022-07-29T08:45:13.858Z,101231.88
2022-07-29T08:46:45.951Z,101224.84
2022-07-29T08:48:21.523Z,101220.03
2022-07-29T08:49:53.337Z,101219.63
2022-07-29T08:51:28.133Z,101221.34
2022-07-29T08:53:00.355Z,101224.66
2022-07-29T08:54:32.517Z,101227.44
2022-07-29T08:56:04.941Z,101230.34
2022-07-29T08:57:37.386Z,101229.72
2022-07-29T08:59:10.442Z,101231.22
2022-07-29T09:00:56.571Z,101230.28
2022-07-29T09:02:40.077Z,101224.28
2022-07-29T09:04:14.164Z,101230.03
2022-07-29T09:05:48.240Z,101226.63
2022-07-29T09:07:20.193Z,101237.09
2022-07-29T09:08:52.084Z,101234.72
2022-07-29T09:10:24.177Z,101229.06
2022-07-29T09:11:56.533Z,101231.41
2022-07-29T09:13:28.580Z,101229.25
2022-07-29T09:15:00.258Z,101231.81
2022-07-29T09:16:53.094Z,101229.00
2022-07-29T09:18:34.840Z,101233.78
2022-07-29T09:20:12.898Z,101241.41
2022-07-29T09:22:00.092Z,101240.75
2022-07-29T09:23:31.978Z,101230.09
2022-07-29T09:25:04.203Z,101230.09
2022-07-29T09:26:37.537Z,101233.75
2022-07-29T09:28:10.412Z,101239.84
2022-07-29T09:29:42.124Z,101233.63
2022-07-29T09:31:13.855Z,101235.00
2022-07-29T09:33:04.086Z,101239.84
2022-07-29T09:34:35.917Z,101238.38
2022-07-29T09:36:10.774Z,101246.94
2022-07-29T09:37:42.731Z,101245.63
2022-07-29T09:39:15.667Z,101243.59
2022-07-29T09:40:59.849Z,101248.09
2022-07-29T09:42:36.642Z,101243.47
2022-07-29T09:44:08.464Z,101242.50
2022-07-29T09:45:40.704Z,101244.00
2022-07-29T09:47:13.373Z,101238.78
2022-07-29T09:48:45.169Z,101245.53
2022-07-29T09:50:17.345Z,101248.50
2022-07-29T09:52:05.476Z,101248.03
2022-07-29T09:53:38.768Z,101239.50
2022-07-29T09:55:13.742Z,101240.88
2022-07-29T09:56:50.429Z,101243.44
2022-07-29T09:58:23.488Z,101256.09
2022-07-29T10:00:00.332Z,101251.25
2022-07-29T10:01:32.118Z,101256.47
2022-07-29T10:03:04.057Z,101255.34
2022-07-29T10:04:39.969Z,101258.00
2022-07-29T10:06:14.458Z,101255.94
2022-07-29T10:07:53.722Z,101252.53
2022-07-29T10:09:25.772Z,101259.41
2022-07-29T10:11:10.504Z,101259.63
2022-07-29T10:12:50.334Z,101254.91
2022-07-29T10:14:22.049Z,101254.72
2022-07-29T10:15:53.931Z,101257.50
2022-07-29T10:17:25.728Z,101253.88
2022-07-29T10:18:57.485Z,101252.34
2022-07-29T10:20:29.623Z,101253.66
2022-07-29T10:22:03.529Z,101254.50
2022-07-29T10:23:46.402Z,101257.19
2022-07-29T10:25:20.752Z,101250.38
2022-07-29T10:26:53.890Z,101260.81
2022-07-29T10:28:26.126Z,101271.78
2022-07-29T10:29:57.851Z,101258.13
2022-07-29T10:31:37.699Z,101257.28
2022-07-29T10:33:27.813Z,101259.09
2022-07-29T10:35:22.236Z,101253.88
2022-07-29T10:37:06.691Z,101259.72
2022-07-29T10:38:47.111Z,101270.97
2022-07-29T10:40:47.689Z,101271.56
2022-07-29T10:42:33.527Z,101261.03
2022-07-29T10:44:12.369Z,101254.72
2022-07-29T10:45:50.572Z,101268.97
2022-07-29T10:47:25.985Z,101256.00
2022-07-29T10:49:15.292Z,101257.94
2022-07-29T10:50:57.759Z,101256.13
2022-07-29T10:52:54.437Z,101257.19
2022-07-29T10:54:48.729Z,101263.41
2022-07-29T10:56:29.499Z,101259.38
2022-07-29T10:58:15.959Z,101264.03
2022-07-29T10:59:52.934Z,101257.44
2022-07-29T11:01:37.100Z,101261.81
2022-07-29T11:03:10.982Z,101263.56
2022-07-29T11:05:00.752Z,101261.13
2022-07-29T11:06:47.369Z,101262.28
2022-07-29T11:08:26.519Z,101260.16
2022-07-29T11:10:26.848Z,101262.44
2022-07-29T11:12:03.546Z,101254.16
2022-07-29T11:13:52.528Z,101254.81
2022-07-29T11:15:25.270Z,101250.75
2022-07-29T11:17:05.959Z,101254.16
2022-07-29T11:19:26.176Z,101253.16
2022-07-29T11:20:58.527Z,101246.88
2022-07-29T11:22:35.311Z,101244.56
2022-07-29T11:24:13.504Z,101248.38
2022-07-29T11:26:28.343Z,101244.09
2022-07-29T11:28:23.066Z,101255.00
2022-07-29T11:29:58.894Z,101249.84
2022-07-29T11:31:39.089Z,101255.22
2022-07-29T11:33:54.356Z,101249.84
2022-07-29T11:37:28.385Z,101252.25
2022-07-29T11:39:26.459Z,101251.34
2022-07-29T11:41:31.770Z,101249.84
2022-07-29T11:43:07.270Z,101244.22
2022-07-29T11:44:57.421Z,101242.28
2022-07-29T11:46:49.973Z,101257.19
2022-07-29T11:48:28.692Z,101250.00
2022-07-29T11:50:06.117Z,101247.66
2022-07-29T11:51:48.721Z,101251.63
2022-07-29T11:53:21.729Z,101249.72
2022-07-29T11:55:00.897Z,101253.13
2022-07-29T11:56:46.856Z,101253.97
2022-07-29T11:58:25.082Z,101249.84
2022-07-29T12:02:12.141Z,101258.94
2022-07-29T12:03:46.123Z,101258.13
2022-07-29T12:05:36.140Z,101253.97
2022-07-29T12:07:08.798Z,101249.19
2022-07-29T12:08:43.334Z,101247.53
2022-07-29T12:10:20.151Z,101247.09
2022-07-29T12:12:05.544Z,101258.47
2022-07-29T12:13:40.676Z,101257.88
2022-07-29T12:15:15.863Z,101256.31
2022-07-29T12:16:47.639Z,101255.22
2022-07-29T12:18:24.222Z,101252.53
2022-07-29T12:19:57.180Z,101237.72
2022-07-29T12:21:29.475Z,101249.53
2022-07-29T12:23:06.357Z,101253.50
2022-07-29T12:24:45.064Z,101250.28
2022-07-29T12:26:25.612Z,101254.56
2022-07-29T12:28:03.139Z,101251.41
2022-07-29T12:29:35.966Z,101242.75
2022-07-29T12:31:14.087Z,101244.50
2022-07-29T12:32:48.372Z,101250.94
2022-07-29T12:34:20.643Z,101241.22
2022-07-29T12:36:17.122Z,101249.47
2022-07-29T12:37:53.010Z,101249.38
2022-07-29T12:39:28.928Z,101249.75
2022-07-29T12:41:01.944Z,101256.72
2022-07-29T12:42:36.809Z,101255.22
2022-07-29T12:44:10.363Z,101250.50
2022-07-29T12:45:43.690Z,101261.41
2022-07-29T12:47:15.595Z,101248.09
2022-07-29T12:48:55.645Z,101243.88
2022-07-29T12:50:27.535Z,101243.94
2022-07-29T12:51:59.714Z,101248.09
2022-07-29T12:53:31.808Z,101247.97
2022-07-29T12:55:05.129Z,101243.13
2022-07-29T12:56:45.553Z,101246.66
2022-07-29T12:58:30.765Z,101239.44
2022-07-29T13:00:09.596Z,101239.72
2022-07-29T13:01:41.515Z,101244.84
2022-07-29T13:03:13.271Z,101247.53
2022-07-29T13:04:56.777Z,101241.00
2022-07-29T13:06:33.965Z,101237.19
2022-07-29T13:08:21.891Z,101230.38
2022-07-29T13:09:54.353Z,101246.41
2022-07-29T13:11:30.685Z,101232.66
2022-07-29T13:13:08.948Z,101233.34
2022-07-29T13:14:42.208Z,101237.88
2022-07-29T13:16:15.529Z,101245.66
2022-07-29T13:17:48.058Z,101244.28
2022-07-29T13:19:19.841Z,101242.47
2022-07-29T13:20:51.930Z,101240.06
2022-07-29T13:22:25.128Z,101244.78
2022-07-29T13:23:56.871Z,101240.47
2022-07-29T13:25:31.378Z,101240.94
2022-07-29T13:27:05.718Z,101247.78
2022-07-29T13:28:37.757Z,101246.25
2022-07-29T13:30:11.584Z,101243.31
2022-07-29T13:31:45.066Z,101242.31
2022-07-29T13:33:16.861Z,101245.34
2022-07-29T13:34:48.639Z,101233.00
2022-07-29T13:36:20.317Z,101234.09
2022-07-29T13:37:52.140Z,101232.31
2022-07-29T13:39:23.819Z,101229.38
2022-07-29T13:40:55.640Z,101234.34
2022-07-29T13:42:27.702Z,101226.41
2022-07-29T13:43:59.495Z,101217.66
2022-07-29T13:45:31.239Z,101224.97
2022-07-29T13:47:04.494Z,101227.25
2022-07-29T13:48:36.475Z,101230.47
2022-07-29T13:50:11.037Z,101226.03
2022-07-29T13:51:42.771Z,101223.16
2022-07-29T13:53:17.460Z,101226.88
2022-07-29T13:54:50.174Z,101225.84
2022-07-29T13:56:21.894Z,101234.97
2022-07-29T13:57:53.599Z,101219.47
2022-07-29T13:59:25.321Z,101226.94
2022-07-29T14:00:57.885Z,101221.31
2022-07-29T14:02:31.060Z,101230.75
2022-07-29T14:04:03.127Z,101213.34
2022-07-29T14:05:34.974Z,101221.94
2022-07-29T14:07:07.129Z,101222.50
2022-07-29T14:08:39.129Z,101224.84
2022-07-29T14:10:11.111Z,101222.84
2022-07-29T14:11:42.883Z,101224.84
2022-07-29T14:13:25.357Z,101222.06
2022-07-29T14:14:58.167Z,101217.72
2022-07-29T14:16:30.112Z,101226.50
2022-07-29T14:18:03.714Z,101214.34
2022-07-29T14:19:39.246Z,101223.84
2022-07-29T14:21:11.162Z,101229.88
2022-07-29T14:22:45.064Z,101226.47
2022-07-29T14:24:21.423Z,101220.28
2022-07-29T14:25:54.663Z,101223.84
2022-07-29T14:27:37.410Z,101222.31
2022-07-29T14:29:10.244Z,101224.19
2022-07-29T14:30:42.022Z,101226.19
2022-07-29T14:32:15.857Z,101223.16
2022-07-29T14:33:49.290Z,101214.50
2022-07-29T14:35:21.256Z,101218.66
2022-07-29T14:36:56.357Z,101214.19
2022-07-29T14:38:28.197Z,101206.84
2022-07-29T14:40:03.584Z,101207.78
2022-07-29T14:41:35.395Z,101205.59
2022-07-29T14:43:07.088Z,101219.00
2022-07-29T14:44:38.843Z,101208.63
2022-07-29T14:46:10.720Z,101207.19
2022-07-29T14:47:42.455Z,101211.72
2022-07-29T14:49:15.941Z,101218.09
2022-07-29T14:50:47.805Z,101224.63
2022-07-29T14:52:19.538Z,101219.91
2022-07-29T14:53:51.442Z,101212.44
2022-07-29T14:55:23.611Z,101221.78
2022-07-29T14:56:58.028Z,101222.06
2022-07-29T14:58:30.135Z,101220.59
2022-07-29T15:00:02.141Z,101221.94
2022-07-29T15:01:33.914Z,101220.53
2022-07-29T15:03:06.269Z,101218.06
2022-07-29T15:04:39.374Z,101216.44
2022-07-29T15:06:11.048Z,101220.59
2022-07-29T15:07:42.785Z,101222.00
2022-07-29T15:09:14.612Z,101227.13
2022-07-29T15:10:46.371Z,101228.97
2022-07-29T15:12:18.437Z,101218.38
2022-07-29T15:13:50.155Z,101225.94
2022-07-29T15:15:22.132Z,101218.81
2022-07-29T15:16:53.978Z,101216.88
2022-07-29T15:18:25.938Z,101225.66
2022-07-29T15:19:58.990Z,101229.91
2022-07-29T15:21:30.746Z,101229.88
2022-07-29T15:23:02.513Z,101228.94
2022-07-29T15:24:34.307Z,101224.06
2022-07-29T15:26:06.015Z,101226.13
2022-07-29T15:27:37.785Z,101217.00
2022-07-29T15:29:09.649Z,101221.41
2022-07-29T15:30:44.093Z,101226.41
2022-07-29T15:32:15.970Z,101220.09
2022-07-29T15:33:47.930Z,101226.88
2022-07-29T15:35:21.102Z,101218.56
2022-07-29T15:36:53.688Z,101214.00
2022-07-29T15:38:28.597Z,101232.63
2022-07-29T15:40:01.204Z,101223.84
2022-07-29T15:41:34.636Z,101230.91
2022-07-29T15:43:06.749Z,101231.88
2022-07-29T15:44:38.695Z,101232.41
2022-07-29T15:46:32.319Z,101228.53
2022-07-29T15:48:05.791Z,101234.34
2022-07-29T15:49:48.405Z,101224.66
2022-07-29T15:51:22.466Z,101221.97
2022-07-29T15:52:54.160Z,101226.53
2022-07-29T15:54:25.958Z,101222.94
2022-07-29T15:55:57.678Z,101216.66
2022-07-29T15:57:29.507Z,101220.94
2022-07-29T15:59:01.258Z,101218.38
2022-07-29T16:00:33.809Z,101216.03
2022-07-29T16:02:05.854Z,101214.50
2022-07-29T16:03:41.960Z,101216.38
2022-07-29T16:05:16.080Z,101221.78
2022-07-29T16:06:50.184Z,101213.81
2022-07-29T16:08:21.924Z,101219.72
2022-07-29T16:09:53.698Z,101219.41
2022-07-29T16:11:25.527Z,101221.13
2022-07-29T16:12:57.271Z,101216.00
2022-07-29T16:14:29.087Z,101220.28
2022-07-29T16:16:00.814Z,101211.47
2022-07-29T16:17:34.913Z,101204.50
2022-07-29T16:19:07.337Z,101201.81
2022-07-29T16:20:39.053Z,101201.59
2022-07-29T16:22:12.594Z,101202.13
2022-07-29T16:23:44.407Z,101200.91
2022-07-29T16:25:16.164Z,101216.25
2022-07-29T16:26:47.927Z,101206.69
2022-07-29T16:28:19.768Z,101207.56
2022-07-29T16:29:51.540Z,101205.81
2022-07-29T16:31:23.863Z,101208.72
2022-07-29T16:32:55.601Z,101201.63
2022-07-29T16:34:27.364Z,101204.69
2022-07-29T16:35:59.307Z,101211.94
2022-07-29T16:37:35.453Z,101200.97
2022-07-29T16:39:07.219Z,101201.13
2022-07-29T16:40:38.915Z,101204.72
2022-07-29T16:42:21.292Z,101204.75
2022-07-29T16:44:03.223Z,101201.22
2022-07-29T16:45:37.845Z,101205.53
2022-07-29T16:47:18.116Z,101211.72
2022-07-29T16:48:50.908Z,101210.03
2022-07-29T16:50:22.814Z,101204.25
2022-07-29T16:51:54.823Z,101204.72
2022-07-29T16:53:30.121Z,101206.81
2022-07-29T16:55:02.008Z,101211.16
2022-07-29T16:56:33.743Z,101205.47
2022-07-29T16:58:05.479Z,101203.56
2022-07-29T16:59:43.625Z,101202.03
2022-07-29T17:01:17.040Z,101211.38
2022-07-29T17:02:48.979Z,101207.59
2022-07-29T17:04:20.988Z,101202.41
2022-07-29T17:05:54.828Z,101205.63
2022-07-29T17:07:26.753Z,101210.41
2022-07-29T17:08:59.795Z,101199.69
2022-07-29T17:10:31.807Z,101201.56
2022-07-29T17:12:04.044Z,101198.25
2022-07-29T17:13:35.827Z,101201.97
2022-07-29T17:15:09.613Z,101206.63
2022-07-29T17:16:41.459Z,101216.28
2022-07-29T17:18:13.288Z,101206.50
2022-07-29T17:19:45.036Z,101211.13
2022-07-29T17:21:16.870Z,101207.72
2022-07-29T17:22:48.644Z,101212.72
2022-07-29T17:24:21.736Z,101212.97
2022-07-29T17:25:56.192Z,101208.81
2022-07-29T17:27:27.925Z,101209.28
2022-07-29T17:28:59.690Z,101206.97
2022-07-29T17:30:31.506Z,101211.72
2022-07-29T17:32:03.621Z,101211.75
2022-07-29T17:33:35.609Z,101210.63
2022-07-29T17:35:28.704Z,101214.41
2022-07-29T17:37:00.877Z,101214.63
2022-07-29T17:38:32.771Z,101226.75
2022-07-29T17:40:07.539Z,101224.16
2022-07-29T17:41:40.973Z,101232.09
2022-07-29T17:43:12.732Z,101229.53
2022-07-29T17:44:44.544Z,101239.06
2022-07-29T17:46:16.820Z,101231.81
2022-07-29T17:47:50.498Z,101230.97
2022-07-29T17:49:22.410Z,101234.50
2022-07-29T17:50:54.172Z,101236.72
2022-07-29T17:52:26.262Z,101243.34
2022-07-29T17:53:58.331Z,101240.94
2022-07-29T17:55:31.428Z,101241.50
2022-07-29T17:57:03.531Z,101229.00
2022-07-29T17:58:35.443Z,101235.25
2022-07-29T18:00:08.487Z,101239.19
2022-07-29T18:01:41.366Z,101243.03
2022-07-29T18:03:13.570Z,101238.22
2022-07-29T18:04:45.423Z,101247.66
2022-07-29T18:06:22.311Z,101242.16
2022-07-29T18:07:55.778Z,101248.81